Airfield :
LOGIN :

Register | Disclaimer

   EN    FR    IT 

 










Legend :    VFR   Marginal VFR   IFR   Intensive IFR   Very Intensive IFR
Visi :
Ceiling :
>= 8 km
>= 3000ft
5 to 8 km
1000 to 3000 ft
1500m to 5 km
500 to 1000 ft
800 to 1500m
200 to 500 ft
< 800m
< 200 ft
Symbols :   Thunderstorms  Fog  Heavy snow  Heavy precipitations  Wind > 20 kt
SIGMETs :     Misc.  Thunderstorms  Icing  Turbulence  Mountain Waves  Volcanic Ashes







- Airport Elevation : 650 ft
- IATA code : ZJI


LSZL - Locarno

CURRENT METAR :
  • 260720Z VRB03KT 4500 +RA SCT015 BKN020 OVC030 13/13 Q1011 RMK GRN

EXPIRED METARs :
  • 260520Z VRB02KT 2000 +RA SCT021 BKN026 13/12 Q1011 RMK YLO
  • 260450Z AUTO VRB03KT 8000NDV +RA FEW031 SCT035 BKN043 13/12 Q1011 RMK

TAF TAF LSZL
Valid from the 26 at 06:00 until the 26 at 15:00 UTC


260525Z 2606/2615 VRB03KT 9999 -SHRA SCT020 BKN050
TEMPO 2606/2614 SHRA SCT030TCU BKN050
PROB30
TEMPO 2606/2612 3000 +TSRA FEW030CB BKN040
No reported NOTAMs for that airfield.
2 SIGMETs reported for the Switzerland FIR (LSAS) :
 
Embedded thunderstorms
LSAS SIGMET 4 VALID 260700/260900 LSZH
LSAS SWITZERLAND FIR/UIR EMBD TS OBS WI N4641 E00836 - N4635 E00933 - N4545 E00902 - N4618 E00815 - N4641 E00836 TOP FL240 STNR NC=
Severe turbulence
LSAS SIGMET 3 VALID 260550/260750 LSZH
LSAS SWITZERLAND FIR SEV TURB OBS WI N4632 E00740 - N4618 E00816 - N4557 E00805 - N4550 E00704 - N4611 E00643 - N4632 E00740 FL200/300 STNR WKN=



MET'MAP, your aeronautical weather chart ! - Copyright ORBIFLY December 2007 - Disclaimer

ORBIFLY MET'MAP TEAM :

Programming & Development : Alexandra Zaïnal
Concept & Development : Baudouin d'Aumeries
Co-Development & Prog : Marc-Olivier Méhu
Technical & hardware support : Manuel Goepfert

Contact : metmap@orbifly.com




SOURCES & CREDITS :

   NOAA